sensor_id;sensor_type;location;lat;lon;timestamp;pressure;altitude;pressure_sealevel;temperature;humidity
6778;BME280;3426;52.244;10.534;2023-02-18T00:00:21;101026.41;;;10.06;54.25
6778;BME280;3426;52.244;10.534;2023-02-18T00:02:49;101027.16;;;10.29;54.62
6778;BME280;3426;52.244;10.534;2023-02-18T00:05:18;101015.66;;;9.91;55.61
6778;BME280;3426;52.244;10.534;2023-02-18T00:07:44;101017.34;;;9.73;55.44
6778;BME280;3426;52.244;10.534;2023-02-18T00:10:13;101004.25;;;9.70;55.76
6778;BME280;3426;52.244;10.534;2023-02-18T00:12:40;101006.66;;;9.76;55.91
6778;BME280;3426;52.244;10.534;2023-02-18T00:15:07;101003.56;;;9.46;56.52
6778;BME280;3426;52.244;10.534;2023-02-18T00:17:35;101002.59;;;9.88;55.87
6778;BME280;3426;52.244;10.534;2023-02-18T00:20:02;100999.91;;;9.69;56.46
6778;BME280;3426;52.244;10.534;2023-02-18T00:22:29;101003.56;;;10.04;55.26
6778;BME280;3426;52.244;10.534;2023-02-18T00:24:56;100986.47;;;9.73;56.41
6778;BME280;3426;52.244;10.534;2023-02-18T00:27:22;100989.03;;;9.75;56.39
6778;BME280;3426;52.244;10.534;2023-02-18T00:29:48;100992.91;;;9.68;57.06
6778;BME280;3426;52.244;10.534;2023-02-18T00:32:15;100989.50;;;10.22;55.20
6778;BME280;3426;52.244;10.534;2023-02-18T00:34:41;101001.47;;;9.73;56.86
6778;BME280;3426;52.244;10.534;2023-02-18T00:37:08;100998.06;;;9.71;56.43
6778;BME280;3426;52.244;10.534;2023-02-18T00:39:35;101006.22;;;9.25;57.66
6778;BME280;3426;52.244;10.534;2023-02-18T00:42:01;100999.09;;;10.06;55.74
6778;BME280;3426;52.244;10.534;2023-02-18T00:44:28;100993.25;;;9.40;57.66
6778;BME280;3426;52.244;10.534;2023-02-18T00:46:54;100987.56;;;10.45;54.82
6778;BME280;3426;52.244;10.534;2023-02-18T00:49:20;100984.63;;;10.13;54.99
6778;BME280;3426;52.244;10.534;2023-02-18T00:51:47;100991.91;;;9.70;56.43
6778;BME280;3426;52.244;10.534;2023-02-18T00:54:13;101008.22;;;9.20;58.84
6778;BME280;3426;52.244;10.534;2023-02-18T00:56:40;101001.84;;;9.84;56.91
6778;BME280;3426;52.244;10.534;2023-02-18T00:59:06;101003.06;;;9.96;56.35
6778;BME280;3426;52.244;10.534;2023-02-18T01:01:33;101003.13;;;9.36;57.78
6778;BME280;3426;52.244;10.534;2023-02-18T01:04:00;101004.25;;;9.31;58.02
6778;BME280;3426;52.244;10.534;2023-02-18T01:06:27;101009.75;;;10.04;56.28
6778;BME280;3426;52.244;10.534;2023-02-18T01:08:53;101003.72;;;9.22;58.14
6778;BME280;3426;52.244;10.534;2023-02-18T01:11:20;100999.22;;;9.84;56.25
6778;BME280;3426;52.244;10.534;2023-02-18T01:13:46;101009.91;;;9.81;57.16
6778;BME280;3426;52.244;10.534;2023-02-18T01:16:13;101014.22;;;9.65;57.15
6778;BME280;3426;52.244;10.534;2023-02-18T01:18:40;101007.03;;;9.87;55.70
6778;BME280;3426;52.244;10.534;2023-02-18T01:21:07;101006.91;;;9.70;57.36
6778;BME280;3426;52.244;10.534;2023-02-18T01:23:36;101010.75;;;9.63;56.93
6778;BME280;3426;52.244;10.534;2023-02-18T01:26:03;101005.06;;;9.91;56.87
6778;BME280;3426;52.244;10.534;2023-02-18T01:28:30;101019.84;;;9.37;57.99
6778;BME280;3426;52.244;10.534;2023-02-18T01:30:57;101010.16;;;9.56;57.63
6778;BME280;3426;52.244;10.534;2023-02-18T01:33:23;100999.00;;;9.49;57.39
6778;BME280;3426;52.244;10.534;2023-02-18T01:35:51;101003.34;;;9.90;57.59
6778;BME280;3426;52.244;10.534;2023-02-18T01:38:18;100993.44;;;9.35;59.38
6778;BME280;3426;52.244;10.534;2023-02-18T01:40:48;100986.94;;;10.40;55.63
6778;BME280;3426;52.244;10.534;2023-02-18T01:43:18;100994.41;;;9.73;58.19
6778;BME280;3426;52.244;10.534;2023-02-18T01:46:03;100995.50;;;9.28;59.41
6778;BME280;3426;52.244;10.534;2023-02-18T01:48:57;100992.50;;;9.77;57.88
6778;BME280;3426;52.244;10.534;2023-02-18T01:51:33;100994.50;;;9.91;57.65
6778;BME280;3426;52.244;10.534;2023-02-18T01:56:40;100985.78;;;10.45;55.50
6778;BME280;3426;52.244;10.534;2023-02-18T01:59:15;100990.06;;;10.48;55.86
6778;BME280;3426;52.244;10.534;2023-02-18T02:01:43;100982.34;;;10.05;56.18
6778;BME280;3426;52.244;10.534;2023-02-18T02:04:11;100986.97;;;10.19;56.57
6778;BME280;3426;52.244;10.534;2023-02-18T02:06:38;100984.75;;;10.48;56.21
6778;BME280;3426;52.244;10.534;2023-02-18T02:09:07;100972.47;;;9.90;57.92
6778;BME280;3426;52.244;10.534;2023-02-18T02:18:16;100985.63;;;9.92;58.30
6778;BME280;3426;52.244;10.534;2023-02-18T02:37:15;100958.81;;;10.54;57.05
6778;BME280;3426;52.244;10.534;2023-02-18T02:40:08;100963.97;;;10.21;57.94
6778;BME280;3426;52.244;10.534;2023-02-18T02:48:26;100973.03;;;9.97;57.68
6778;BME280;3426;52.244;10.534;2023-02-18T02:51:27;100969.19;;;9.46;59.91
6778;BME280;3426;52.244;10.534;2023-02-18T02:54:08;100964.03;;;10.39;57.39
6778;BME280;3426;52.244;10.534;2023-02-18T02:56:35;100963.25;;;9.99;58.76
6778;BME280;3426;52.244;10.534;2023-02-18T02:59:06;100967.69;;;9.98;58.28
6778;BME280;3426;52.244;10.534;2023-02-18T03:16:00;100948.50;;;10.50;57.81
6778;BME280;3426;52.244;10.534;2023-02-18T03:21:26;100941.66;;;9.89;60.48
6778;BME280;3426;52.244;10.534;2023-02-18T03:24:01;100934.41;;;10.30;59.63
6778;BME280;3426;52.244;10.534;2023-02-18T03:26:31;100944.50;;;10.03;60.59
6778;BME280;3426;52.244;10.534;2023-02-18T03:29:02;100929.28;;;10.27;60.61
6778;BME280;3426;52.244;10.534;2023-02-18T03:31:34;100931.13;;;10.44;59.85
6778;BME280;3426;52.244;10.534;2023-02-18T03:34:10;100929.56;;;10.21;nan
6778;BME280;3426;52.244;10.534;2023-02-18T03:36:39;100929.44;;;10.42;61.04
6778;BME280;3426;52.244;10.534;2023-02-18T03:39:13;100934.06;;;10.00;63.83
6778;BME280;3426;52.244;10.534;2023-02-18T03:41:40;100928.13;;;9.57;64.42
6778;BME280;3426;52.244;10.534;2023-02-18T03:44:09;100913.91;;;10.53;62.02
6778;BME280;3426;52.244;10.534;2023-02-18T03:46:38;100909.94;;;10.44;62.57
6778;BME280;3426;52.244;10.534;2023-02-18T03:49:05;100909.34;;;9.82;65.13
6778;BME280;3426;52.244;10.534;2023-02-18T03:51:31;100906.22;;;10.29;63.62
6778;BME280;3426;52.244;10.534;2023-02-18T03:53:58;100912.34;;;9.94;64.95
6778;BME280;3426;52.244;10.534;2023-02-18T03:56:24;100911.84;;;9.86;64.45
6778;BME280;3426;52.244;10.534;2023-02-18T03:58:51;100917.69;;;9.92;64.88
6778;BME280;3426;52.244;10.534;2023-02-18T04:01:17;100909.75;;;10.11;63.83
6778;BME280;3426;52.244;10.534;2023-02-18T04:03:44;100917.91;;;10.25;64.22
6778;BME280;3426;52.244;10.534;2023-02-18T04:06:10;100915.28;;;9.88;64.77
6778;BME280;3426;52.244;10.534;2023-02-18T04:08:36;100909.75;;;10.47;63.36
6778;BME280;3426;52.244;10.534;2023-02-18T04:11:04;100902.50;;;10.33;62.32
6778;BME280;3426;52.244;10.534;2023-02-18T04:13:30;100898.63;;;10.75;60.56
6778;BME280;3426;52.244;10.534;2023-02-18T04:15:57;100904.38;;;11.18;60.32
6778;BME280;3426;52.244;10.534;2023-02-18T04:18:23;100898.91;;;11.04;61.13
6778;BME280;3426;52.244;10.534;2023-02-18T04:20:50;100895.44;;;10.51;62.95
6778;BME280;3426;52.244;10.534;2023-02-18T04:23:17;100895.28;;;10.72;62.89
6778;BME280;3426;52.244;10.534;2023-02-18T04:25:43;100892.91;;;10.31;63.56
6778;BME280;3426;52.244;10.534;2023-02-18T04:28:12;100903.22;;;11.39;60.09
6778;BME280;3426;52.244;10.534;2023-02-18T04:30:40;100894.00;;;11.47;60.24
6778;BME280;3426;52.244;10.534;2023-02-18T04:33:07;100890.22;;;10.67;63.82
6778;BME280;3426;52.244;10.534;2023-02-18T04:35:33;100889.88;;;11.08;62.49
6778;BME280;3426;52.244;10.534;2023-02-18T04:38:00;100892.31;;;11.28;61.29
6778;BME280;3426;52.244;10.534;2023-02-18T04:40:26;100892.69;;;10.87;63.00
6778;BME280;3426;52.244;10.534;2023-02-18T04:42:57;100897.53;;;10.97;63.46
6778;BME280;3426;52.244;10.534;2023-02-18T04:45:25;100887.91;;;10.61;64.16
6778;BME280;3426;52.244;10.534;2023-02-18T04:47:52;100894.88;;;10.27;66.57
6778;BME280;3426;52.244;10.534;2023-02-18T04:50:19;100888.56;;;11.32;63.68
6778;BME280;3426;52.244;10.534;2023-02-18T04:52:46;100889.44;;;10.82;67.25
6778;BME280;3426;52.244;10.534;2023-02-18T04:55:12;100883.03;;;11.04;65.68
6778;BME280;3426;52.244;10.534;2023-02-18T04:57:39;100879.16;;;10.42;68.25
6778;BME280;3426;52.244;10.534;2023-02-18T05:00:07;100882.66;;;10.59;68.73
6778;BME280;3426;52.244;10.534;2023-02-18T05:02:34;100877.84;;;10.33;71.21
6778;BME280;3426;52.244;10.534;2023-02-18T05:05:01;100863.34;;;10.57;70.73
6778;BME280;3426;52.244;10.534;2023-02-18T05:07:27;100873.09;;;10.74;71.11
6778;BME280;3426;52.244;10.534;2023-02-18T05:09:53;100874.16;;;10.70;71.74
6778;BME280;3426;52.244;10.534;2023-02-18T05:12:20;100865.47;;;11.19;69.97
6778;BME280;3426;52.244;10.534;2023-02-18T05:14:46;100867.88;;;11.23;70.37
6778;BME280;3426;52.244;10.534;2023-02-18T05:17:13;100851.34;;;10.85;72.17
6778;BME280;3426;52.244;10.534;2023-02-18T05:19:39;100848.31;;;11.08;71.55
6778;BME280;3426;52.244;10.534;2023-02-18T05:22:06;100840.41;;;10.91;72.97
6778;BME280;3426;52.244;10.534;2023-02-18T05:24:32;100834.03;;;10.95;73.31
6778;BME280;3426;52.244;10.534;2023-02-18T05:26:59;100829.50;;;10.11;76.99
6778;BME280;3426;52.244;10.534;2023-02-18T05:29:25;100827.50;;;10.68;75.60
6778;BME280;3426;52.244;10.534;2023-02-18T05:31:52;100817.16;;;11.29;72.75
6778;BME280;3426;52.244;10.534;2023-02-18T05:34:18;100809.59;;;10.73;74.29
6778;BME280;3426;52.244;10.534;2023-02-18T05:36:45;100821.91;;;10.74;74.87
6778;BME280;3426;52.244;10.534;2023-02-18T05:39:12;100815.09;;;10.85;74.99
6778;BME280;3426;52.244;10.534;2023-02-18T05:41:38;100799.84;;;10.73;75.73
6778;BME280;3426;52.244;10.534;2023-02-18T05:44:04;100798.41;;;11.17;74.28
6778;BME280;3426;52.244;10.534;2023-02-18T05:46:50;100793.38;;;10.79;75.27
6778;BME280;3426;52.244;10.534;2023-02-18T05:49:16;100796.38;;;10.88;75.23
6778;BME280;3426;52.244;10.534;2023-02-18T05:51:43;100797.56;;;10.83;76.55
6778;BME280;3426;52.244;10.534;2023-02-18T05:54:09;100793.75;;;10.38;78.01
6778;BME280;3426;52.244;10.534;2023-02-18T05:56:36;100800.03;;;10.35;78.42
6778;BME280;3426;52.244;10.534;2023-02-18T05:59:02;100795.47;;;10.20;79.75
6778;BME280;3426;52.244;10.534;2023-02-18T06:01:29;100782.22;;;10.03;80.29
6778;BME280;3426;52.244;10.534;2023-02-18T06:03:55;100787.09;;;10.29;80.27
6778;BME280;3426;52.244;10.534;2023-02-18T06:06:22;100785.94;;;10.52;79.35
6778;BME280;3426;52.244;10.534;2023-02-18T06:08:49;100781.47;;;10.53;79.63
6778;BME280;3426;52.244;10.534;2023-02-18T06:11:15;100769.28;;;10.83;79.13
6778;BME280;3426;52.244;10.534;2023-02-18T06:13:41;100762.19;;;10.51;78.98
6778;BME280;3426;52.244;10.534;2023-02-18T06:16:08;100756.28;;;10.95;77.56
6778;BME280;3426;52.244;10.534;2023-02-18T06:18:35;100748.13;;;10.66;79.55
6778;BME280;3426;52.244;10.534;2023-02-18T06:21:02;100742.00;;;10.81;77.93
6778;BME280;3426;52.244;10.534;2023-02-18T06:23:29;100739.38;;;10.97;76.67
6778;BME280;3426;52.244;10.534;2023-02-18T06:25:55;100743.75;;;10.65;78.98
6778;BME280;3426;52.244;10.534;2023-02-18T06:28:22;100745.13;;;10.56;79.66
6778;BME280;3426;52.244;10.534;2023-02-18T06:30:49;100753.91;;;10.57;80.45
6778;BME280;3426;52.244;10.534;2023-02-18T06:33:16;100748.31;;;10.46;79.59
6778;BME280;3426;52.244;10.534;2023-02-18T06:36:00;100741.56;;;10.89;78.76
6778;BME280;3426;52.244;10.534;2023-02-18T06:38:28;100739.22;;;11.16;77.84
6778;BME280;3426;52.244;10.534;2023-02-18T06:40:54;100722.44;;;11.00;77.60
6778;BME280;3426;52.244;10.534;2023-02-18T06:43:21;100713.50;;;11.18;76.66
6778;BME280;3426;52.244;10.534;2023-02-18T06:45:47;100708.81;;;11.23;75.95
6778;BME280;3426;52.244;10.534;2023-02-18T06:48:14;100699.72;;;11.27;76.51
6778;BME280;3426;52.244;10.534;2023-02-18T06:50:42;100702.47;;;11.10;76.99
6778;BME280;3426;52.244;10.534;2023-02-18T06:53:09;100683.31;;;11.21;76.32
6778;BME280;3426;52.244;10.534;2023-02-18T06:55:35;100694.59;;;11.24;76.51
6778;BME280;3426;52.244;10.534;2023-02-18T06:58:02;100679.19;;;10.99;76.93
6778;BME280;3426;52.244;10.534;2023-02-18T07:00:29;100685.00;;;11.22;76.61
6778;BME280;3426;52.244;10.534;2023-02-18T07:02:55;100679.28;;;11.29;76.88
6778;BME280;3426;52.244;10.534;2023-02-18T07:05:22;100668.34;;;11.20;77.13
6778;BME280;3426;52.244;10.534;2023-02-18T07:07:48;100657.34;;;10.96;76.99
6778;BME280;3426;52.244;10.534;2023-02-18T07:10:15;100652.69;;;10.99;77.41
6778;BME280;3426;52.244;10.534;2023-02-18T07:12:41;100645.00;;;10.95;77.55
6778;BME280;3426;52.244;10.534;2023-02-18T07:15:08;100648.69;;;11.24;77.54
6778;BME280;3426;52.244;10.534;2023-02-18T07:17:35;100646.53;;;10.99;77.26
6778;BME280;3426;52.244;10.534;2023-02-18T07:20:02;100638.69;;;11.13;77.27
6778;BME280;3426;52.244;10.534;2023-02-18T07:22:29;100636.28;;;10.93;78.07
6778;BME280;3426;52.244;10.534;2023-02-18T07:24:56;100631.38;;;11.17;76.69
6778;BME280;3426;52.244;10.534;2023-02-18T07:27:22;100625.19;;;11.02;78.12
6778;BME280;3426;52.244;10.534;2023-02-18T07:29:49;100622.59;;;11.00;78.23
6778;BME280;3426;52.244;10.534;2023-02-18T07:32:17;100610.25;;;11.31;77.56
6778;BME280;3426;52.244;10.534;2023-02-18T07:34:44;100614.28;;;11.22;77.68
6778;BME280;3426;52.244;10.534;2023-02-18T07:37:11;100599.28;;;11.37;77.35
6778;BME280;3426;52.244;10.534;2023-02-18T07:39:41;100603.97;;;11.48;77.04
6778;BME280;3426;52.244;10.534;2023-02-18T07:42:09;100607.94;;;11.40;77.05
6778;BME280;3426;52.244;10.534;2023-02-18T07:44:36;100599.00;;;11.57;75.98
6778;BME280;3426;52.244;10.534;2023-02-18T07:47:04;100594.38;;;11.45;77.28
6778;BME280;3426;52.244;10.534;2023-02-18T07:49:31;100597.16;;;11.28;79.50
6778;BME280;3426;52.244;10.534;2023-02-18T07:51:58;100601.03;;;11.22;80.20
6778;BME280;3426;52.244;10.534;2023-02-18T07:54:25;100588.16;;;11.46;78.81
6778;BME280;3426;52.244;10.534;2023-02-18T07:56:51;100579.53;;;11.57;78.61
6778;BME280;3426;52.244;10.534;2023-02-18T07:59:20;100580.53;;;11.70;77.42
6778;BME280;3426;52.244;10.534;2023-02-18T08:01:46;100576.03;;;11.86;77.56
6778;BME280;3426;52.244;10.534;2023-02-18T08:04:13;100565.81;;;11.94;76.98
6778;BME280;3426;52.244;10.534;2023-02-18T08:06:45;100559.97;;;11.74;77.62
6778;BME280;3426;52.244;10.534;2023-02-18T08:09:13;100550.34;;;11.43;79.20
6778;BME280;3426;52.244;10.534;2023-02-18T08:11:40;100528.28;;;11.56;78.45
6778;BME280;3426;52.244;10.534;2023-02-18T08:14:06;100536.09;;;11.74;78.88
6778;BME280;3426;52.244;10.534;2023-02-18T08:16:33;100537.13;;;11.71;79.28
6778;BME280;3426;52.244;10.534;2023-02-18T08:19:00;100533.06;;;11.80;80.67
6778;BME280;3426;52.244;10.534;2023-02-18T08:21:29;100520.22;;;11.88;79.11
6778;BME280;3426;52.244;10.534;2023-02-18T08:23:57;100520.19;;;12.02;80.05
6778;BME280;3426;52.244;10.534;2023-02-18T08:26:24;100515.47;;;12.22;79.23
6778;BME280;3426;52.244;10.534;2023-02-18T08:28:50;100515.91;;;12.28;79.66
6778;BME280;3426;52.244;10.534;2023-02-18T08:31:22;100511.94;;;12.21;80.13
6778;BME280;3426;52.244;10.534;2023-02-18T08:33:51;100509.22;;;11.94;81.58
6778;BME280;3426;52.244;10.534;2023-02-18T08:36:17;100501.50;;;11.47;84.32
6778;BME280;3426;52.244;10.534;2023-02-18T08:38:44;100503.31;;;11.60;84.33
6778;BME280;3426;52.244;10.534;2023-02-18T08:41:11;100505.09;;;11.60;84.53
6778;BME280;3426;52.244;10.534;2023-02-18T08:43:40;100490.91;;;11.89;83.09
6778;BME280;3426;52.244;10.534;2023-02-18T08:46:06;100489.59;;;11.82;85.08
6778;BME280;3426;52.244;10.534;2023-02-18T08:48:41;100491.94;;;12.01;85.13
6778;BME280;3426;52.244;10.534;2023-02-18T08:51:19;100489.69;;;11.81;85.99
6778;BME280;3426;52.244;10.534;2023-02-18T08:53:46;100485.47;;;12.34;83.42
6778;BME280;3426;52.244;10.534;2023-02-18T08:56:13;100479.25;;;12.47;84.21
6778;BME280;3426;52.244;10.534;2023-02-18T08:58:40;100471.78;;;12.67;82.94
6778;BME280;3426;52.244;10.534;2023-02-18T09:01:09;100463.53;;;12.71;83.10
6778;BME280;3426;52.244;10.534;2023-02-18T09:03:36;100467.09;;;12.70;83.55
6778;BME280;3426;52.244;10.534;2023-02-18T09:06:03;100461.72;;;12.45;84.52
6778;BME280;3426;52.244;10.534;2023-02-18T09:08:30;100459.16;;;12.43;85.10
6778;BME280;3426;52.244;10.534;2023-02-18T09:10:58;100457.84;;;11.95;87.23
6778;BME280;3426;52.244;10.534;2023-02-18T09:13:25;100453.56;;;12.07;86.46
6778;BME280;3426;52.244;10.534;2023-02-18T09:16:04;100458.50;;;12.40;87.41
6778;BME280;3426;52.244;10.534;2023-02-18T09:18:31;100455.19;;;11.81;90.56
6778;BME280;3426;52.244;10.534;2023-02-18T09:20:59;100455.34;;;12.06;89.07
6778;BME280;3426;52.244;10.534;2023-02-18T09:23:28;100447.13;;;12.38;88.55
6778;BME280;3426;52.244;10.534;2023-02-18T09:25:54;100441.75;;;11.84;90.19
6778;BME280;3426;52.244;10.534;2023-02-18T09:28:22;100440.25;;;12.21;88.53
6778;BME280;3426;52.244;10.534;2023-02-18T09:30:48;100444.94;;;12.71;86.97
6778;BME280;3426;52.244;10.534;2023-02-18T09:33:15;100438.91;;;12.28;88.49
6778;BME280;3426;52.244;10.534;2023-02-18T09:35:44;100433.16;;;12.22;88.84
6778;BME280;3426;52.244;10.534;2023-02-18T09:38:12;100428.72;;;12.62;85.96
6778;BME280;3426;52.244;10.534;2023-02-18T09:40:43;100419.09;;;12.46;88.07
6778;BME280;3426;52.244;10.534;2023-02-18T09:43:28;100415.34;;;12.36;87.44
6778;BME280;3426;52.244;10.534;2023-02-18T09:45:57;100412.66;;;12.51;87.38
6778;BME280;3426;52.244;10.534;2023-02-18T09:48:27;100405.31;;;12.14;88.17
6778;BME280;3426;52.244;10.534;2023-02-18T09:50:54;100386.19;;;13.14;84.68
6778;BME280;3426;52.244;10.534;2023-02-18T09:53:22;100405.63;;;13.02;84.00
6778;BME280;3426;52.244;10.534;2023-02-18T09:55:51;100397.47;;;13.05;84.00
6778;BME280;3426;52.244;10.534;2023-02-18T09:58:28;100401.75;;;12.68;85.61
6778;BME280;3426;52.244;10.534;2023-02-18T10:01:03;100404.47;;;12.93;84.88
6778;BME280;3426;52.244;10.534;2023-02-18T10:03:31;100400.78;;;12.69;85.37
6778;BME280;3426;52.244;10.534;2023-02-18T10:06:02;100390.22;;;13.20;83.44
6778;BME280;3426;52.244;10.534;2023-02-18T10:08:38;100387.69;;;13.06;84.81
6778;BME280;3426;52.244;10.534;2023-02-18T10:11:12;100393.19;;;13.03;83.52
6778;BME280;3426;52.244;10.534;2023-02-18T10:13:42;100388.97;;;13.25;81.85
6778;BME280;3426;52.244;10.534;2023-02-18T10:16:17;100381.41;;;12.94;82.38
6778;BME280;3426;52.244;10.534;2023-02-18T10:18:45;100381.50;;;13.05;83.81
6778;BME280;3426;52.244;10.534;2023-02-18T10:21:17;100377.66;;;12.96;84.28
6778;BME280;3426;52.244;10.534;2023-02-18T10:24:06;100378.66;;;13.34;82.73
6778;BME280;3426;52.244;10.534;2023-02-18T10:26:37;100382.19;;;12.69;84.57
6778;BME280;3426;52.244;10.534;2023-02-18T10:29:13;100372.16;;;12.99;81.91
6778;BME280;3426;52.244;10.534;2023-02-18T10:31:43;100374.53;;;13.30;81.09
6778;BME280;3426;52.244;10.534;2023-02-18T10:34:37;100367.16;;;13.08;81.84
6778;BME280;3426;52.244;10.534;2023-02-18T10:40:30;100397.22;;;12.95;81.87
6778;BME280;3426;52.244;10.534;2023-02-18T10:43:27;100388.41;;;12.82;82.45
6778;BME280;3426;52.244;10.534;2023-02-18T10:51:03;100364.09;;;12.49;81.18
6778;BME280;3426;52.244;10.534;2023-02-18T10:53:37;100352.03;;;12.95;80.17
6778;BME280;3426;52.244;10.534;2023-02-18T10:56:05;100357.38;;;13.21;80.62
6778;BME280;3426;52.244;10.534;2023-02-18T10:58:41;100364.06;;;13.26;80.61
6778;BME280;3426;52.244;10.534;2023-02-18T11:01:21;100341.94;;;13.51;78.91
6778;BME280;3426;52.244;10.534;2023-02-18T11:03:51;100340.00;;;13.15;79.31
6778;BME280;3426;52.244;10.534;2023-02-18T11:06:28;100333.94;;;12.75;80.78
6778;BME280;3426;52.244;10.534;2023-02-18T11:08:57;100339.81;;;12.80;80.41
6778;BME280;3426;52.244;10.534;2023-02-18T11:11:29;100346.25;;;13.65;77.68
6778;BME280;3426;52.244;10.534;2023-02-18T11:14:02;100344.19;;;13.32;77.34
6778;BME280;3426;52.244;10.534;2023-02-18T11:16:43;100332.25;;;13.38;77.14
6778;BME280;3426;52.244;10.534;2023-02-18T11:19:34;100345.03;;;12.42;81.15
6778;BME280;3426;52.244;10.534;2023-02-18T11:24:45;100333.66;;;13.31;77.78
6778;BME280;3426;52.244;10.534;2023-02-18T11:27:25;100333.44;;;13.08;77.94
6778;BME280;3426;52.244;10.534;2023-02-18T11:29:59;100346.66;;;13.22;78.42
6778;BME280;3426;52.244;10.534;2023-02-18T11:32:29;100339.38;;;12.61;80.46
6778;BME280;3426;52.244;10.534;2023-02-18T11:34:56;100337.13;;;12.67;80.42
6778;BME280;3426;52.244;10.534;2023-02-18T11:37:23;100335.22;;;12.17;81.85
6778;BME280;3426;52.244;10.534;2023-02-18T11:39:52;100343.81;;;12.60;80.45
6778;BME280;3426;52.244;10.534;2023-02-18T11:42:22;100340.25;;;13.25;77.54
6778;BME280;3426;52.244;10.534;2023-02-18T11:44:55;100321.94;;;12.69;81.09
6778;BME280;3426;52.244;10.534;2023-02-18T11:47:35;100334.78;;;12.63;81.43
6778;BME280;3426;52.244;10.534;2023-02-18T11:55:06;100316.72;;;12.42;83.15
6778;BME280;3426;52.244;10.534;2023-02-18T11:57:36;100338.59;;;12.59;83.21
6778;BME280;3426;52.244;10.534;2023-02-18T12:00:15;100325.56;;;12.81;81.43
6778;BME280;3426;52.244;10.534;2023-02-18T12:02:45;100319.94;;;12.73;83.54
6778;BME280;3426;52.244;10.534;2023-02-18T12:05:23;100318.13;;;12.61;82.11
6778;BME280;3426;52.244;10.534;2023-02-18T12:08:02;100318.13;;;12.61;81.18
6778;BME280;3426;52.244;10.534;2023-02-18T12:10:42;100336.16;;;12.43;79.63
6778;BME280;3426;52.244;10.534;2023-02-18T12:13:31;100339.69;;;12.69;78.58
6778;BME280;3426;52.244;10.534;2023-02-18T12:22:09;100310.69;;;12.66;78.75
6778;BME280;3426;52.244;10.534;2023-02-18T12:25:42;100301.03;;;12.25;80.39
6778;BME280;3426;52.244;10.534;2023-02-18T12:27:42;100308.69;;;12.30;79.30
6778;BME280;3426;52.244;10.534;2023-02-18T12:30:31;100307.13;;;12.53;80.75
6778;BME280;3426;52.244;10.534;2023-02-18T12:35:48;100316.28;;;12.49;80.18
6778;BME280;3426;52.244;10.534;2023-02-18T13:11:42;100344.88;;;12.18;82.75
6778;BME280;3426;52.244;10.534;2023-02-18T13:14:15;100346.47;;;11.79;83.91
6778;BME280;3426;52.244;10.534;2023-02-18T13:16:46;100349.22;;;12.59;81.65
6778;BME280;3426;52.244;10.534;2023-02-18T13:19:26;100356.59;;;12.01;81.93
6778;BME280;3426;52.244;10.534;2023-02-18T13:22:14;100352.88;;;12.31;82.42
6778;BME280;3426;52.244;10.534;2023-02-18T13:24:44;100331.81;;;12.15;81.11
6778;BME280;3426;52.244;10.534;2023-02-18T13:27:38;100339.22;;;12.10;82.49
6778;BME280;3426;52.244;10.534;2023-02-18T13:35:41;100338.84;;;12.02;83.46
6778;BME280;3426;52.244;10.534;2023-02-18T13:41:11;100356.06;;;12.36;82.79
6778;BME280;3426;52.244;10.534;2023-02-18T13:43:37;100344.19;;;13.07;79.67
6778;BME280;3426;52.244;10.534;2023-02-18T13:46:08;100354.44;;;11.93;82.86
6778;BME280;3426;52.244;10.534;2023-02-18T13:48:43;100357.84;;;12.50;80.11
6778;BME280;3426;52.244;10.534;2023-02-18T13:51:12;100356.97;;;12.09;81.86
6778;BME280;3426;52.244;10.534;2023-02-18T13:53:42;100362.63;;;12.70;80.28
6778;BME280;3426;52.244;10.534;2023-02-18T13:56:27;100361.31;;;12.37;81.98
6778;BME280;3426;52.244;10.534;2023-02-18T13:58:59;100372.34;;;12.04;82.57
6778;BME280;3426;52.244;10.534;2023-02-18T14:04:35;100377.38;;;12.49;81.90
6778;BME280;3426;52.244;10.534;2023-02-18T14:09:44;100375.75;;;12.46;81.39
6778;BME280;3426;52.244;10.534;2023-02-18T14:14:57;100385.41;;;12.74;79.82
6778;BME280;3426;52.244;10.534;2023-02-18T14:17:31;100378.81;;;11.72;86.44
6778;BME280;3426;52.244;10.534;2023-02-18T14:22:28;100376.38;;;11.68;87.40
6778;BME280;3426;52.244;10.534;2023-02-18T14:27:38;100398.88;;;12.04;85.92
6778;BME280;3426;52.244;10.534;2023-02-18T14:32:49;100407.97;;;12.00;87.75
6778;BME280;3426;52.244;10.534;2023-02-18T14:45:57;100417.72;;;12.41;84.76
6778;BME280;3426;52.244;10.534;2023-02-18T14:48:54;100421.84;;;12.32;85.59
6778;BME280;3426;52.244;10.534;2023-02-18T14:51:25;100423.34;;;11.81;88.29
6778;BME280;3426;52.244;10.534;2023-02-18T14:53:56;100422.94;;;12.42;84.87
6778;BME280;3426;52.244;10.534;2023-02-18T14:56:28;100425.19;;;12.49;84.76
6778;BME280;3426;52.244;10.534;2023-02-18T14:58:57;100431.75;;;12.02;88.40
6778;BME280;3426;52.244;10.534;2023-02-18T15:01:29;100433.28;;;11.49;89.47
6778;BME280;3426;52.244;10.534;2023-02-18T15:03:56;100433.50;;;12.03;87.04
6778;BME280;3426;52.244;10.534;2023-02-18T15:06:35;100450.25;;;12.03;87.61
6778;BME280;3426;52.244;10.534;2023-02-18T15:09:22;100443.91;;;12.06;88.47
6778;BME280;3426;52.244;10.534;2023-02-18T15:11:51;100445.13;;;12.00;88.76
6778;BME280;3426;52.244;10.534;2023-02-18T15:14:23;100453.31;;;11.97;88.27
6778;BME280;3426;52.244;10.534;2023-02-18T15:16:51;100459.75;;;12.34;87.56
6778;BME280;3426;52.244;10.534;2023-02-18T15:19:21;100456.13;;;12.35;86.78
6778;BME280;3426;52.244;10.534;2023-02-18T15:21:49;100459.25;;;12.15;88.17
6778;BME280;3426;52.244;10.534;2023-02-18T15:26:48;100460.81;;;12.59;85.38
6778;BME280;3426;52.244;10.534;2023-02-18T15:29:20;100458.09;;;12.73;84.63
6778;BME280;3426;52.244;10.534;2023-02-18T15:31:48;100464.97;;;12.63;84.33
6778;BME280;3426;52.244;10.534;2023-02-18T15:34:36;100464.84;;;12.10;85.30
6778;BME280;3426;52.244;10.534;2023-02-18T15:37:09;100452.72;;;11.78;85.90
6778;BME280;3426;52.244;10.534;2023-02-18T15:39:40;100460.22;;;11.85;84.77
6778;BME280;3426;52.244;10.534;2023-02-18T15:42:32;100460.03;;;12.03;85.74